Time;durP1;ratioP1;P1;durP2;ratioP2;P2;SDS_P1;SDS_P2;PMS_P1;PMS_P2;Temp;Humidity;BMP_temperature;BMP_pressure;BME280_temperature;BME280_humidity;BME280_pressure;Samples;Min_cycle;Max_cycle;Signal;HPM_P1;HPM_P2
2024/03/15 00:02:45;;;;;;;;;;;;;;;;;;137223;1271;22547;-84
2024/03/15 00:05:46;;;;;;;;;;;;;;;;;;137665;1263;22517;-83
2024/03/15 00:08:49;;;;;;;;;;;;;;;;;;137201;1270;22500;-83
2024/03/15 00:11:50;;;;;;;;;;;;;;;;;;137292;1270;22579;-83
2024/03/15 00:14:51;;;;;;;;;;;;;;;;;;137901;1270;22496;-82
2024/03/15 00:17:55;;;;;;;;;;;;;;;;;;137265;1267;22484;-80
2024/03/15 00:20:56;;;;;;;;;;;;;;;;;;137325;1270;22510;-82
2024/03/15 00:23:57;;;;;;;;;;;;;;;;;;137719;1270;22499;-83
2024/03/15 00:26:59;;;;;;;;;;;;;;;;;;137571;1270;22486;-81
2024/03/15 00:30:00;;;;;;;;;;;;;;;;;;137444;1270;22505;-81
2024/03/15 00:33:02;;;;;;;;;;;;;;;;;;137648;1270;22780;-81
2024/03/15 00:36:03;;;;;;;;;;;;;;;;;;137522;1270;22506;-81
2024/03/15 00:39:05;;;;;;;;;;;;;;;;;;137342;1270;22509;-81
2024/03/15 00:42:06;;;;;;;;;;;;;;;;;;137290;1270;22919;-81
2024/03/15 00:45:07;;;;;;;;;;;;;;;;;;137721;1270;22559;-81
2024/03/15 00:48:09;;;;;;;;;;;;;;;;;;137262;1270;23221;-81
2024/03/15 00:51:10;;;;;;;;;;;;;;;;;;137194;1270;22596;-81
2024/03/15 00:54:12;;;;;;;;;;;;;;;;;;137739;1264;22511;-82
2024/03/15 00:57:13;;;;;;;;;;;;;;;;;;137348;1270;22523;-81
2024/03/15 01:00:14;;;;;;;;;;;;;;;;;;137157;1271;22518;-82
2024/03/15 01:03:16;;;;;;;;;;;;;;;;;;137571;1270;22528;-81
2024/03/15 01:06:17;;;;;;;;;;;;;;;;;;137572;1270;22494;-80
2024/03/15 01:09:18;;;;;;;;;;;;;;;;;;137297;1264;22523;-79
2024/03/15 01:12:19;;;;;;;;;;;;;;;;;;137428;1270;22562;-78
2024/03/15 01:15:20;;;;;;;;;;;;;;;;;;137805;1270;22541;-80
2024/03/15 01:18:21;;;;;;;;;;;;;;;;;;137267;1270;22535;-82
2024/03/15 01:21:22;;;;;;;;;;;;;;;;;;137086;1270;22975;-82
2024/03/15 01:24:23;;;;;;;;;;;;;;;;;;137868;1270;22557;-82
2024/03/15 01:27:27;;;;;;;;;;;;;;;;;;137164;1270;22546;-82
2024/03/15 01:30:29;;;;;;;;;;;;;;;;;;137198;1270;22468;-81
2024/03/15 01:33:30;;;;;;;;;;;;;;;;;;137701;1270;22435;-82
2024/03/15 01:36:31;;;;;;;;;;;;;;;;;;137256;1270;22588;-82
2024/03/15 01:39:32;;;;;;;;;;;;;;;;;;137143;1270;22566;-81
2024/03/15 01:42:33;;;;;;;;;;;;;;;;;;137625;1264;22538;-81
2024/03/15 01:45:34;;;;;;;;;;;;;;;;;;137491;1270;22508;-81
2024/03/15 01:48:36;;;;;;;;;;;;;;;;;;137572;1270;22511;-81
2024/03/15 01:51:37;;;;;;;;;;;;;;;;;;137404;1270;22524;-80
2024/03/15 01:54:39;;;;;;;;;;;;;;;;;;137718;1270;22554;-80
2024/03/15 01:57:40;;;;;;;;;;;;;;;;;;137206;1270;22499;-81
2024/03/15 02:00:41;;;;;;;;;;;;;;;;;;137152;1270;22524;-81
2024/03/15 02:03:46;;;;;;;;;;;;;;;;;;137884;1270;22493;-81
2024/03/15 02:06:47;;;;;;;;;;;;;;;;;;137277;1270;22506;-81
2024/03/15 02:09:48;;;;;;;;;;;;;;;;;;137237;1270;22530;-82
2024/03/15 02:12:49;;;;;;;;;;;;;;;;;;137722;1270;22563;-81
2024/03/15 02:16:15;;;;;;;;;;;;;;;;;;133382;1305;544044;-80
2024/03/15 02:19:17;;;;;;;;;;;;;;;;;;136984;1274;22514;-80
2024/03/15 02:22:20;;;;;;;;;;;;;;;;;;137244;1274;22522;-82
2024/03/15 02:25:22;;;;;;;;;;;;;;;;;;137080;1271;22548;-80
2024/03/15 02:28:24;;;;;;;;;;;;;;;;;;136739;1272;300942;-79
2024/03/15 02:31:26;;;;;;;;;;;;;;;;;;137352;1272;22522;-81
2024/03/15 02:34:29;;;;;;;;;;;;;;;;;;137765;1269;22534;-81
2024/03/15 02:37:31;;;;;;;;;;;;;;;;;;137194;1272;22497;-81
2024/03/15 02:40:36;;;;;;;;;;;;;;;;;;137144;1272;22609;-81
2024/03/15 02:43:39;;;;;;;;;;;;;;;;;;137745;1272;22487;-78
2024/03/15 02:46:41;;;;;;;;;;;;;;;;;;137163;1272;22512;-78
2024/03/15 02:49:43;;;;;;;;;;;;;;;;;;137107;1272;22498;-78
2024/03/15 02:52:47;;;;;;;;;;;;;;;;;;137562;1272;22526;-81
2024/03/15 02:55:50;;;;;;;;;;;;;;;;;;137432;1272;22484;-82
2024/03/15 02:58:52;;;;;;;;;;;;;;;;;;137186;1272;22508;-84
2024/03/15 03:01:54;;;;;;;;;;;;;;;;;;137270;1272;24174;-85
2024/03/15 03:04:57;;;;;;;;;;;;;;;;;;137783;1272;22547;-81
2024/03/15 03:07:59;;;;;;;;;;;;;;;;;;137230;1272;22505;-81
2024/03/15 03:11:01;;;;;;;;;;;;;;;;;;137182;1272;23118;-80
2024/03/15 03:14:04;;;;;;;;;;;;;;;;;;137843;1272;22851;-81
2024/03/15 03:17:06;;;;;;;;;;;;;;;;;;137739;1272;22506;-77
2024/03/15 03:20:12;;;;;;;;;;;;;;;;;;137632;1272;22529;-81
2024/03/15 03:23:21;;;;;;;;;;;;;;;;;;137478;1272;24159;-80
2024/03/15 03:26:23;;;;;;;;;;;;;;;;;;137567;1272;22535;-81
2024/03/15 03:29:26;;;;;;;;;;;;;;;;;;137356;1272;22499;-81
2024/03/15 03:32:28;;;;;;;;;;;;;;;;;;137404;1272;22533;-82
2024/03/15 03:35:31;;;;;;;;;;;;;;;;;;137506;1269;22525;-81
2024/03/15 03:38:33;;;;;;;;;;;;;;;;;;137420;1272;22517;-81
2024/03/15 03:41:35;;;;;;;;;;;;;;;;;;137307;1272;22968;-82
2024/03/15 03:44:38;;;;;;;;;;;;;;;;;;137483;1272;23239;-81
2024/03/15 03:47:40;;;;;;;;;;;;;;;;;;137470;1272;22924;-82
2024/03/15 03:50:43;;;;;;;;;;;;;;;;;;137393;1272;22514;-83
2024/03/15 03:54:24;;;;;;;;;;;;;;;;;;132402;1314;544202;-82
2024/03/15 03:57:28;;;;;;;;;;;;;;;;;;135731;1290;22532;-81
2024/03/15 04:00:31;;;;;;;;;;;;;;;;;;135872;1290;22537;-83
2024/03/15 04:03:33;;;;;;;;;;;;;;;;;;135922;1290;22537;-83
2024/03/15 04:06:35;;;;;;;;;;;;;;;;;;135440;1287;192190;-83
2024/03/15 04:09:36;;;;;;;;;;;;;;;;;;135759;1287;25279;-80
2024/03/15 04:12:37;;;;;;;;;;;;;;;;;;136356;1287;22534;-79
2024/03/15 04:15:38;;;;;;;;;;;;;;;;;;135973;1287;22708;-83
2024/03/15 04:18:40;;;;;;;;;;;;;;;;;;136162;1276;25188;-80
2024/03/15 04:21:42;;;;;;;;;;;;;;;;;;136361;1287;22438;-82
2024/03/15 04:24:43;;;;;;;;;;;;;;;;;;135653;1287;22565;-83
2024/03/15 04:27:46;;;;;;;;;;;;;;;;;;135959;1287;23087;-83
2024/03/15 04:30:47;;;;;;;;;;;;;;;;;;136327;1287;22533;-83
2024/03/15 04:33:49;;;;;;;;;;;;;;;;;;136134;1287;23334;-82
2024/03/15 04:36:51;;;;;;;;;;;;;;;;;;136330;1280;22982;-80
2024/03/15 04:39:52;;;;;;;;;;;;;;;;;;136569;1280;25347;-80
2024/03/15 04:42:53;;;;;;;;;;;;;;;;;;136649;1280;22521;-80
2024/03/15 04:45:54;;;;;;;;;;;;;;;;;;136016;1280;23094;-82
2024/03/15 04:48:55;;;;;;;;;;;;;;;;;;136934;1276;22519;-81
2024/03/15 04:51:56;;;;;;;;;;;;;;;;;;137082;1276;22524;-81
2024/03/15 04:54:58;;;;;;;;;;;;;;;;;;136532;1275;22524;-80
2024/03/15 04:58:00;;;;;;;;;;;;;;;;;;137305;1276;22792;-79
2024/03/15 05:01:01;;;;;;;;;;;;;;;;;;137302;1276;22966;-81
2024/03/15 05:04:02;;;;;;;;;;;;;;;;;;137275;1275;22318;-79
2024/03/15 05:07:05;;;;;;;;;;;;;;;;;;137283;1276;22262;-80
2024/03/15 05:10:06;;;;;;;;;;;;;;;;;;137280;1276;22331;-83
2024/03/15 05:13:07;;;;;;;;;;;;;;;;;;137266;1276;22374;-84
2024/03/15 05:16:12;;;;;;;;;;;;;;;;;;137017;1276;22528;-81
2024/03/15 05:19:13;;;;;;;;;;;;;;;;;;137265;1276;22327;-81
2024/03/15 05:22:14;;;;;;;;;;;;;;;;;;137313;1276;22412;-80
2024/03/15 05:25:15;;;;;;;;;;;;;;;;;;137302;1276;22345;-80
2024/03/15 05:28:16;;;;;;;;;;;;;;;;;;136940;1273;22475;-80
2024/03/15 05:31:18;;;;;;;;;;;;;;;;;;136930;1276;22512;-80
2024/03/15 05:34:19;;;;;;;;;;;;;;;;;;136640;1276;22511;-80
2024/03/15 05:37:20;;;;;;;;;;;;;;;;;;136688;1276;23107;-79
2024/03/15 05:40:23;;;;;;;;;;;;;;;;;;137304;1273;22286;-83
2024/03/15 05:43:25;;;;;;;;;;;;;;;;;;136789;1276;23160;-83
2024/03/15 05:46:26;;;;;;;;;;;;;;;;;;136788;1276;22543;-80
2024/03/15 05:49:29;;;;;;;;;;;;;;;;;;136908;1265;22606;-83
2024/03/15 05:52:32;;;;;;;;;;;;;;;;;;136740;1276;22527;-83
2024/03/15 05:55:36;;;;;;;;;;;;;;;;;;136805;1266;22584;-83
2024/03/15 05:58:38;;;;;;;;;;;;;;;;;;137304;1276;22514;-82
2024/03/15 06:01:40;;;;;;;;;;;;;;;;;;137329;1276;22260;-82
2024/03/15 06:04:42;;;;;;;;;;;;;;;;;;136908;1276;22545;-82
2024/03/15 06:07:44;;;;;;;;;;;;;;;;;;137181;1276;22541;-82
2024/03/15 06:10:48;;;;;;;;;;;;;;;;;;136857;1276;22570;-83
2024/03/15 06:13:49;;;;;;;;;;;;;;;;;;137022;1276;22555;-82
2024/03/15 06:16:50;;;;;;;;;;;;;;;;;;137267;1276;22339;-83
2024/03/15 06:19:53;;;;;;;;;;;;;;;;;;137108;1270;22509;-83
2024/03/15 06:22:54;;;;;;;;;;;;;;;;;;137046;1276;23754;-83
2024/03/15 06:25:55;;;;;;;;;;;;;;;;;;137284;1276;22576;-79
2024/03/15 06:28:57;;;;;;;;;;;;;;;;;;137280;1276;22321;-79
2024/03/15 06:31:59;;;;;;;;;;;;;;;;;;136914;1276;22545;-78
2024/03/15 06:35:02;;;;;;;;;;;;;;;;;;137238;1276;22340;-80
2024/03/15 06:38:09;;;;;;;;;;;;;;;;;;137274;1276;22352;-79
2024/03/15 06:41:13;;;;;;;;;;;;;;;;;;137317;1276;22818;-79
2024/03/15 06:44:20;;;;;;;;;;;;;;;;;;136776;1276;22552;-78
2024/03/15 06:47:28;;;;;;;;;;;;;;;;;;137290;1276;22338;-77
2024/03/15 06:50:37;;;;;;;;;;;;;;;;;;137168;1276;22424;-78
2024/03/15 06:53:38;;;;;;;;;;;;;;;;;;137084;1276;23127;-79
2024/03/15 06:56:41;;;;;;;;;;;;;;;;;;137268;1276;22322;-80
2024/03/15 06:59:42;;;;;;;;;;;;;;;;;;137268;1276;22358;-79
2024/03/15 07:02:44;;;;;;;;;;;;;;;;;;137261;1276;22348;-79
2024/03/15 07:05:45;;;;;;;;;;;;;;;;;;137238;1276;22336;-79
2024/03/15 07:08:46;;;;;;;;;;;;;;;;;;137238;1276;22356;-80
2024/03/15 07:11:47;;;;;;;;;;;;;;;;;;137293;1276;22743;-79
2024/03/15 07:14:49;;;;;;;;;;;;;;;;;;137295;1276;22311;-79
2024/03/15 07:17:50;;;;;;;;;;;;;;;;;;137280;1276;23056;-79
2024/03/15 07:20:53;;;;;;;;;;;;;;;;;;137125;1276;22577;-83
2024/03/15 07:23:55;;;;;;;;;;;;;;;;;;136803;1276;22541;-83
2024/03/15 07:26:56;;;;;;;;;;;;;;;;;;137227;1276;22609;-83
2024/03/15 07:30:00;;;;;;;;;;;;;;;;;;136784;1276;22544;-81
2024/03/15 07:33:01;;;;;;;;;;;;;;;;;;137141;1273;22590;-82
2024/03/15 07:36:04;;;;;;;;;;;;;;;;;;137111;1276;22717;-82
2024/03/15 07:39:07;;;;;;;;;;;;;;;;;;136637;1276;22523;-80
2024/03/15 07:42:08;;;;;;;;;;;;;;;;;;137182;1272;22530;-83
2024/03/15 07:45:10;;;;;;;;;;;;;;;;;;136939;1276;22513;-82
2024/03/15 07:48:13;;;;;;;;;;;;;;;;;;137158;1276;22975;-83
2024/03/15 07:51:15;;;;;;;;;;;;;;;;;;137226;1276;22536;-83
2024/03/15 07:54:16;;;;;;;;;;;;;;;;;;137116;1276;22510;-84
2024/03/15 07:57:17;;;;;;;;;;;;;;;;;;137316;1270;22361;-84
2024/03/15 08:00:20;;;;;;;;;;;;;;;;;;137024;1267;22894;-82
2024/03/15 08:03:22;;;;;;;;;;;;;;;;;;137007;1276;22526;-82
2024/03/15 08:06:23;;;;;;;;;;;;;;;;;;137286;1276;22750;-84
2024/03/15 08:09:24;;;;;;;;;;;;;;;;;;137176;1276;22553;-81
2024/03/15 08:12:27;;;;;;;;;;;;;;;;;;137199;1276;22570;-82
2024/03/15 08:16:26;;;;;;;;;;;;;;;;;;132908;1313;544407;-82
2024/03/15 08:19:28;;;;;;;;;;;;;;;;;;135906;1288;22562;-81
2024/03/15 08:22:29;;;;;;;;;;;;;;;;;;136420;1280;22585;-83
2024/03/15 08:25:31;;;;;;;;;;;;;;;;;;136845;1280;22507;-83
2024/03/15 08:28:32;;;;;;;;;;;;;;;;;;134288;1277;2950634;-83
2024/03/15 08:31:33;;;;;;;;;;;;;;;;;;136694;1277;22574;-81
2024/03/15 08:34:36;;;;;;;;;;;;;;;;;;137233;1274;23001;-81
2024/03/15 08:37:39;;;;;;;;;;;;;;;;;;137147;1274;22560;-81
2024/03/15 08:40:40;;;;;;;;;;;;;;;;;;137062;1262;22522;-80
2024/03/15 08:43:41;;;;;;;;;;;;;;;;;;137413;1274;22512;-82
2024/03/15 08:46:43;;;;;;;;;;;;;;;;;;137282;1267;22507;-82
2024/03/15 08:49:48;;;;;;;;;;;;;;;;;;137343;1274;22484;-83
2024/03/15 08:52:50;;;;;;;;;;;;;;;;;;137286;1274;22475;-81
2024/03/15 08:55:51;;;;;;;;;;;;;;;;;;137355;1274;22513;-82
2024/03/15 08:58:53;;;;;;;;;;;;;;;;;;137447;1274;22408;-82
2024/03/15 09:01:57;;;;;;;;;;;;;;;;;;137414;1274;22781;-82
2024/03/15 09:04:59;;;;;;;;;;;;;;;;;;137444;1274;22399;-88
2024/03/15 09:08:00;;;;;;;;;;;;;;;;;;137298;1274;22699;-81
2024/03/15 09:11:02;;;;;;;;;;;;;;;;;;137445;1274;22770;-82
2024/03/15 09:14:06;;;;;;;;;;;;;;;;;;137292;1274;22561;-83
2024/03/15 09:17:12;;;;;;;;;;;;;;;;;;137210;1274;22528;-82
2024/03/15 09:20:19;;;;;;;;;;;;;;;;;;137297;1274;22544;-82
2024/03/15 09:23:20;;;;;;;;;;;;;;;;;;137197;1274;22512;-84
2024/03/15 09:26:22;;;;;;;;;;;;;;;;;;137481;1275;22305;-82
2024/03/15 09:29:23;;;;;;;;;;;;;;;;;;137510;1275;22330;-82
2024/03/15 09:32:31;;;;;;;;;;;;;;;;;;137316;1267;22519;-82
2024/03/15 09:38:49;;;;;;;;;;;;;;;;;;137169;1275;22552;-79
2024/03/15 09:41:50;;;;;;;;;;;;;;;;;;137407;1275;22311;-82
2024/03/15 09:44:52;;;;;;;;;;;;;;;;;;137315;1275;23012;-81
2024/03/15 09:47:54;;;;;;;;;;;;;;;;;;137142;1275;22581;-82
2024/03/15 09:50:56;;;;;;;;;;;;;;;;;;137403;1275;22415;-83
2024/03/15 09:53:57;;;;;;;;;;;;;;;;;;137361;1275;22864;-80
2024/03/15 09:56:58;;;;;;;;;;;;;;;;;;137446;1275;22514;-83
2024/03/15 10:00:00;;;;;;;;;;;;;;;;;;137457;1275;22348;-82
2024/03/15 10:03:01;;;;;;;;;;;;;;;;;;137433;1275;22351;-82
2024/03/15 10:06:05;;;;;;;;;;;;;;;;;;136818;1275;22543;-83
2024/03/15 10:09:12;;;;;;;;;;;;;;;;;;137352;1271;22502;-81
2024/03/15 10:12:13;;;;;;;;;;;;;;;;;;137090;1275;22529;-83
2024/03/15 10:15:14;;;;;;;;;;;;;;;;;;137245;1275;22535;-81
2024/03/15 10:18:16;;;;;;;;;;;;;;;;;;137252;1275;22671;-82
2024/03/15 10:21:17;;;;;;;;;;;;;;;;;;137396;1275;22533;-83
2024/03/15 10:24:18;;;;;;;;;;;;;;;;;;137210;1275;22514;-84
2024/03/15 10:27:22;;;;;;;;;;;;;;;;;;137143;1275;22530;-82
2024/03/15 10:30:23;;;;;;;;;;;;;;;;;;137393;1267;22819;-82
2024/03/15 10:33:24;;;;;;;;;;;;;;;;;;137367;1275;22528;-83
2024/03/15 10:36:25;;;;;;;;;;;;;;;;;;137403;1274;22338;-83
2024/03/15 10:39:27;;;;;;;;;;;;;;;;;;137383;1275;22863;-83
2024/03/15 10:42:28;;;;;;;;;;;;;;;;;;137265;1275;23013;-82
2024/03/15 10:45:29;;;;;;;;;;;;;;;;;;137354;1275;22465;-82
2024/03/15 10:48:30;;;;;;;;;;;;;;;;;;137332;1275;22916;-80
2024/03/15 10:51:32;;;;;;;;;;;;;;;;;;137312;1275;22734;-80
2024/03/15 10:54:33;;;;;;;;;;;;;;;;;;137312;1275;22331;-80
2024/03/15 10:57:34;;;;;;;;;;;;;;;;;;137297;1275;22403;-78
2024/03/15 11:00:36;;;;;;;;;;;;;;;;;;137286;1275;22351;-77
2024/03/15 11:03:37;;;;;;;;;;;;;;;;;;137380;1275;22312;-78
2024/03/15 11:06:38;;;;;;;;;;;;;;;;;;137119;1275;22509;-79
2024/03/15 11:09:39;;;;;;;;;;;;;;;;;;137365;1275;22347;-78
2024/03/15 11:12:40;;;;;;;;;;;;;;;;;;137385;1275;22324;-78
2024/03/15 11:15:42;;;;;;;;;;;;;;;;;;136764;1275;22510;-78
2024/03/15 11:18:43;;;;;;;;;;;;;;;;;;137247;1275;22519;-80
2024/03/15 11:21:44;;;;;;;;;;;;;;;;;;136770;1275;22556;-78
2024/03/15 11:24:47;;;;;;;;;;;;;;;;;;137055;1275;22498;-78
2024/03/15 11:27:48;;;;;;;;;;;;;;;;;;137401;1275;22445;-77
2024/03/15 11:30:50;;;;;;;;;;;;;;;;;;137497;1275;22998;-79
2024/03/15 11:33:53;;;;;;;;;;;;;;;;;;137485;1264;22292;-79
2024/03/15 11:36:54;;;;;;;;;;;;;;;;;;137209;1275;22531;-78
2024/03/15 11:39:56;;;;;;;;;;;;;;;;;;137457;1275;22333;-78
2024/03/15 11:42:57;;;;;;;;;;;;;;;;;;137388;1275;22460;-78
2024/03/15 11:45:58;;;;;;;;;;;;;;;;;;137321;1275;22309;-79
2024/03/15 11:48:59;;;;;;;;;;;;;;;;;;137314;1275;22753;-79
2024/03/15 11:52:00;;;;;;;;;;;;;;;;;;137360;1275;22306;-79
2024/03/15 11:55:01;;;;;;;;;;;;;;;;;;137375;1275;22340;-81
2024/03/15 11:58:02;;;;;;;;;;;;;;;;;;137353;1275;22362;-79
2024/03/15 12:01:03;;;;;;;;;;;;;;;;;;137325;1275;22460;-79
2024/03/15 12:04:05;;;;;;;;;;;;;;;;;;137328;1275;22329;-78
2024/03/15 12:07:06;;;;;;;;;;;;;;;;;;137313;1275;22341;-79
2024/03/15 12:10:08;;;;;;;;;;;;;;;;;;137316;1275;22797;-79
2024/03/15 12:13:09;;;;;;;;;;;;;;;;;;137319;1275;22417;-74
2024/03/15 12:16:11;;;;;;;;;;;;;;;;;;137293;1275;22325;-77
2024/03/15 12:19:12;;;;;;;;;;;;;;;;;;137361;1275;22277;-79
2024/03/15 12:22:14;;;;;;;;;;;;;;;;;;137403;1275;22328;-79
2024/03/15 12:25:15;;;;;;;;;;;;;;;;;;137382;1275;22318;-78
2024/03/15 12:28:17;;;;;;;;;;;;;;;;;;137338;1275;22987;-80
2024/03/15 12:31:18;;;;;;;;;;;;;;;;;;137378;1275;22440;-79
2024/03/15 12:34:20;;;;;;;;;;;;;;;;;;137360;1275;22372;-81
2024/03/15 12:37:27;;;;;;;;;;;;;;;;;;137353;1275;22349;-80
2024/03/15 12:40:28;;;;;;;;;;;;;;;;;;137324;1275;22605;-82
2024/03/15 12:43:29;;;;;;;;;;;;;;;;;;137302;1275;22929;-80
2024/03/15 12:46:30;;;;;;;;;;;;;;;;;;137321;1275;22360;-79
2024/03/15 12:49:31;;;;;;;;;;;;;;;;;;137327;1275;22813;-80
2024/03/15 12:52:33;;;;;;;;;;;;;;;;;;137366;1275;22333;-78
2024/03/15 12:55:34;;;;;;;;;;;;;;;;;;137287;1275;22862;-79
2024/03/15 12:58:36;;;;;;;;;;;;;;;;;;137318;1275;22309;-85
2024/03/15 13:01:37;;;;;;;;;;;;;;;;;;137307;1275;23234;-83
2024/03/15 13:04:38;;;;;;;;;;;;;;;;;;137316;1275;22764;-84
2024/03/15 13:07:46;;;;;;;;;;;;;;;;;;137297;1275;23077;-82
2024/03/15 13:10:48;;;;;;;;;;;;;;;;;;137287;1275;22300;-83
2024/03/15 13:13:49;;;;;;;;;;;;;;;;;;137265;1275;22362;-82
2024/03/15 13:16:50;;;;;;;;;;;;;;;;;;137302;1275;22326;-78
2024/03/15 13:19:51;;;;;;;;;;;;;;;;;;137318;1268;22310;-81
2024/03/15 13:22:53;;;;;;;;;;;;;;;;;;137213;1275;22364;-79
2024/03/15 13:25:54;;;;;;;;;;;;;;;;;;137267;1275;22295;-79
2024/03/15 13:28:56;;;;;;;;;;;;;;;;;;137225;1275;22359;-79
2024/03/15 13:31:57;;;;;;;;;;;;;;;;;;137188;1275;22344;-79
2024/03/15 13:34:58;;;;;;;;;;;;;;;;;;137271;1275;22279;-78
2024/03/15 13:37:59;;;;;;;;;;;;;;;;;;137259;1266;22305;-80
2024/03/15 13:41:00;;;;;;;;;;;;;;;;;;137170;1275;22340;-80
2024/03/15 13:44:01;;;;;;;;;;;;;;;;;;137238;1275;22373;-80
2024/03/15 13:47:07;;;;;;;;;;;;;;;;;;137268;1275;22829;-80
2024/03/15 13:50:08;;;;;;;;;;;;;;;;;;137259;1275;22836;-80
2024/03/15 13:53:09;;;;;;;;;;;;;;;;;;137244;1275;22343;-80
2024/03/15 13:56:10;;;;;;;;;;;;;;;;;;137262;1275;22322;-78
2024/03/15 13:59:12;;;;;;;;;;;;;;;;;;137260;1272;22296;-79
2024/03/15 14:02:13;;;;;;;;;;;;;;;;;;137272;1275;22901;-81
2024/03/15 14:05:15;;;;;;;;;;;;;;;;;;137307;1275;22351;-80
2024/03/15 14:08:18;;;;;;;;;;;;;;;;;;137335;1275;22801;-79
2024/03/15 14:11:19;;;;;;;;;;;;;;;;;;137311;1275;22362;-78
2024/03/15 14:14:21;;;;;;;;;;;;;;;;;;137322;1275;22388;-79
2024/03/15 14:17:22;;;;;;;;;;;;;;;;;;137337;1275;22385;-78
2024/03/15 14:20:23;;;;;;;;;;;;;;;;;;137289;1275;22369;-77
2024/03/15 14:23:26;;;;;;;;;;;;;;;;;;137267;1275;22414;-78
2024/03/15 14:26:27;;;;;;;;;;;;;;;;;;136485;1275;22551;-79
2024/03/15 14:29:28;;;;;;;;;;;;;;;;;;137005;1275;22585;-80
2024/03/15 14:32:30;;;;;;;;;;;;;;;;;;137252;1275;22271;-79
2024/03/15 14:35:31;;;;;;;;;;;;;;;;;;137397;1275;22328;-78
2024/03/15 14:38:32;;;;;;;;;;;;;;;;;;137450;1275;22297;-78
2024/03/15 14:41:33;;;;;;;;;;;;;;;;;;137501;1275;22478;-78
2024/03/15 14:44:36;;;;;;;;;;;;;;;;;;137527;1275;22466;-79
2024/03/15 14:47:37;;;;;;;;;;;;;;;;;;137444;1275;22390;-79
2024/03/15 14:50:38;;;;;;;;;;;;;;;;;;137349;1275;22332;-79
2024/03/15 14:53:39;;;;;;;;;;;;;;;;;;137361;1275;22363;-79
2024/03/15 14:56:40;;;;;;;;;;;;;;;;;;137325;1275;22311;-78
2024/03/15 14:59:42;;;;;;;;;;;;;;;;;;137331;1275;22299;-80
2024/03/15 15:02:43;;;;;;;;;;;;;;;;;;137410;1275;22346;-79
2024/03/15 15:05:46;;;;;;;;;;;;;;;;;;137379;1275;22341;-80
2024/03/15 15:08:47;;;;;;;;;;;;;;;;;;137257;1275;22542;-81
2024/03/15 15:11:49;;;;;;;;;;;;;;;;;;137437;1275;22512;-81
2024/03/15 15:14:50;;;;;;;;;;;;;;;;;;137179;1275;22499;-80
2024/03/15 15:17:52;;;;;;;;;;;;;;;;;;137404;1275;22338;-80
2024/03/15 15:20:53;;;;;;;;;;;;;;;;;;137392;1275;22879;-80
2024/03/15 15:23:55;;;;;;;;;;;;;;;;;;137085;1263;22513;-79
2024/03/15 15:26:58;;;;;;;;;;;;;;;;;;137348;1275;22346;-81
2024/03/15 15:29:59;;;;;;;;;;;;;;;;;;137323;1275;22774;-79
2024/03/15 15:33:00;;;;;;;;;;;;;;;;;;137333;1272;22294;-82
2024/03/15 15:36:01;;;;;;;;;;;;;;;;;;137282;1275;22300;-82
2024/03/15 15:39:05;;;;;;;;;;;;;;;;;;137378;1275;22350;-80
2024/03/15 15:42:08;;;;;;;;;;;;;;;;;;137395;1275;22679;-80
2024/03/15 15:45:10;;;;;;;;;;;;;;;;;;137143;1275;22515;-80
2024/03/15 15:48:11;;;;;;;;;;;;;;;;;;137143;1275;22516;-82
2024/03/15 15:51:14;;;;;;;;;;;;;;;;;;137304;1275;22553;-82
2024/03/15 15:54:15;;;;;;;;;;;;;;;;;;137252;1275;23122;-82
2024/03/15 15:57:18;;;;;;;;;;;;;;;;;;137282;1275;22535;-82
2024/03/15 16:00:20;;;;;;;;;;;;;;;;;;137285;1275;24195;-81
2024/03/15 16:03:23;;;;;;;;;;;;;;;;;;137169;1275;22662;-80
2024/03/15 16:06:24;;;;;;;;;;;;;;;;;;137165;1275;22571;-82
2024/03/15 16:09:27;;;;;;;;;;;;;;;;;;137328;1275;23190;-81
2024/03/15 16:12:28;;;;;;;;;;;;;;;;;;137323;1275;22562;-82
2024/03/15 16:15:30;;;;;;;;;;;;;;;;;;137283;1275;22539;-81
2024/03/15 16:18:31;;;;;;;;;;;;;;;;;;137420;1275;22299;-81
2024/03/15 16:21:32;;;;;;;;;;;;;;;;;;137241;1275;23019;-80
2024/03/15 16:24:33;;;;;;;;;;;;;;;;;;137376;1275;22571;-77
2024/03/15 16:27:34;;;;;;;;;;;;;;;;;;137336;1275;22916;-77
2024/03/15 16:30:35;;;;;;;;;;;;;;;;;;137392;1275;22329;-79
2024/03/15 16:33:36;;;;;;;;;;;;;;;;;;137318;1275;22530;-79
2024/03/15 16:36:37;;;;;;;;;;;;;;;;;;137446;1275;22315;-79
2024/03/15 16:39:38;;;;;;;;;;;;;;;;;;137493;1275;22996;-78
2024/03/15 16:42:39;;;;;;;;;;;;;;;;;;137481;1275;22803;-79
2024/03/15 16:45:41;;;;;;;;;;;;;;;;;;137465;1275;22323;-79
2024/03/15 16:48:42;;;;;;;;;;;;;;;;;;137473;1275;22339;-80
2024/03/15 16:51:43;;;;;;;;;;;;;;;;;;137437;1275;22597;-79
2024/03/15 16:54:44;;;;;;;;;;;;;;;;;;137346;1275;22524;-80
2024/03/15 16:57:46;;;;;;;;;;;;;;;;;;137321;1275;22516;-80
2024/03/15 17:00:47;;;;;;;;;;;;;;;;;;137354;1275;22518;-80
2024/03/15 17:03:48;;;;;;;;;;;;;;;;;;137342;1275;22951;-78
2024/03/15 17:06:51;;;;;;;;;;;;;;;;;;137142;1275;25885;-80
2024/03/15 17:09:52;;;;;;;;;;;;;;;;;;137329;1275;22928;-80
2024/03/15 17:12:53;;;;;;;;;;;;;;;;;;137233;1275;22546;-80
2024/03/15 17:15:55;;;;;;;;;;;;;;;;;;137340;1275;22513;-80
2024/03/15 17:18:56;;;;;;;;;;;;;;;;;;137409;1275;22282;-80
2024/03/15 17:21:58;;;;;;;;;;;;;;;;;;137373;1267;22508;-80
2024/03/15 17:24:59;;;;;;;;;;;;;;;;;;137392;1275;22528;-80
2024/03/15 17:28:01;;;;;;;;;;;;;;;;;;137307;1275;22554;-78
2024/03/15 17:31:02;;;;;;;;;;;;;;;;;;137486;1275;22785;-80
2024/03/15 17:34:03;;;;;;;;;;;;;;;;;;137332;1275;22628;-80
2024/03/15 17:37:04;;;;;;;;;;;;;;;;;;137378;1275;22510;-79
2024/03/15 17:40:07;;;;;;;;;;;;;;;;;;137386;1272;22655;-80
2024/03/15 17:43:08;;;;;;;;;;;;;;;;;;137377;1275;22490;-77
2024/03/15 17:46:09;;;;;;;;;;;;;;;;;;137062;1275;22553;-78
2024/03/15 17:49:11;;;;;;;;;;;;;;;;;;137306;1275;22543;-78
2024/03/15 17:52:14;;;;;;;;;;;;;;;;;;137130;1275;22493;-77
2024/03/15 17:55:15;;;;;;;;;;;;;;;;;;137480;1275;22838;-79
2024/03/15 17:58:16;;;;;;;;;;;;;;;;;;137349;1275;22614;-80
2024/03/15 18:01:17;;;;;;;;;;;;;;;;;;137422;1275;22544;-77
2024/03/15 18:04:20;;;;;;;;;;;;;;;;;;137298;1275;23056;-78
2024/03/15 18:07:21;;;;;;;;;;;;;;;;;;137394;1275;22533;-77
2024/03/15 18:10:24;;;;;;;;;;;;;;;;;;137510;1275;22331;-77
2024/03/15 18:13:25;;;;;;;;;;;;;;;;;;137447;1275;22490;-77
2024/03/15 18:16:26;;;;;;;;;;;;;;;;;;137380;1275;22527;-77
2024/03/15 18:19:28;;;;;;;;;;;;;;;;;;137456;1275;22537;-77
2024/03/15 18:22:29;;;;;;;;;;;;;;;;;;137411;1275;22515;-79
2024/03/15 18:25:30;;;;;;;;;;;;;;;;;;137432;1275;22531;-77
2024/03/15 18:28:31;;;;;;;;;;;;;;;;;;137456;1275;22343;-77
2024/03/15 18:31:32;;;;;;;;;;;;;;;;;;137394;1275;22380;-77
2024/03/15 18:34:33;;;;;;;;;;;;;;;;;;137441;1275;22352;-77
2024/03/15 18:37:35;;;;;;;;;;;;;;;;;;137376;1275;22289;-77
2024/03/15 18:40:36;;;;;;;;;;;;;;;;;;137370;1263;22342;-77
2024/03/15 18:43:38;;;;;;;;;;;;;;;;;;137360;1275;22392;-77
2024/03/15 18:46:39;;;;;;;;;;;;;;;;;;137377;1275;22348;-78
2024/03/15 18:49:40;;;;;;;;;;;;;;;;;;137368;1275;22324;-77
2024/03/15 18:52:41;;;;;;;;;;;;;;;;;;137444;1275;22303;-78
2024/03/15 18:55:42;;;;;;;;;;;;;;;;;;137385;1275;22546;-77
2024/03/15 18:58:43;;;;;;;;;;;;;;;;;;137336;1275;22537;-78
2024/03/15 19:01:44;;;;;;;;;;;;;;;;;;137223;1275;22541;-78
2024/03/15 19:04:51;;;;;;;;;;;;;;;;;;137311;1275;22518;-78
2024/03/15 19:07:52;;;;;;;;;;;;;;;;;;137429;1275;22577;-77
2024/03/15 19:10:53;;;;;;;;;;;;;;;;;;137246;1275;22603;-77
2024/03/15 19:13:54;;;;;;;;;;;;;;;;;;137286;1275;23011;-76
2024/03/15 19:16:55;;;;;;;;;;;;;;;;;;137227;1275;22981;-77
2024/03/15 19:19:56;;;;;;;;;;;;;;;;;;137345;1275;22603;-76
2024/03/15 19:22:57;;;;;;;;;;;;;;;;;;137364;1275;22518;-77
2024/03/15 19:26:00;;;;;;;;;;;;;;;;;;137360;1275;22580;-77
2024/03/15 19:29:01;;;;;;;;;;;;;;;;;;137326;1267;22513;-77
2024/03/15 19:32:02;;;;;;;;;;;;;;;;;;137398;1275;22517;-77
2024/03/15 19:35:03;;;;;;;;;;;;;;;;;;137407;1275;22912;-77
2024/03/15 19:38:04;;;;;;;;;;;;;;;;;;137377;1275;22788;-77
2024/03/15 19:41:10;;;;;;;;;;;;;;;;;;137360;1275;22334;-77
2024/03/15 19:44:11;;;;;;;;;;;;;;;;;;137374;1275;22482;-76
2024/03/15 19:47:12;;;;;;;;;;;;;;;;;;137413;1275;22517;-77
2024/03/15 19:50:14;;;;;;;;;;;;;;;;;;137366;1275;22542;-76
2024/03/15 19:53:15;;;;;;;;;;;;;;;;;;137293;1275;22557;-76
2024/03/15 19:56:17;;;;;;;;;;;;;;;;;;137398;1275;22334;-77
2024/03/15 19:59:20;;;;;;;;;;;;;;;;;;137369;1275;22947;-77
2024/03/15 20:02:21;;;;;;;;;;;;;;;;;;137320;1275;22577;-77
2024/03/15 20:05:25;;;;;;;;;;;;;;;;;;137335;1275;22558;-77
2024/03/15 20:08:26;;;;;;;;;;;;;;;;;;137359;1275;22522;-77
2024/03/15 20:11:27;;;;;;;;;;;;;;;;;;137442;1275;22361;-77
2024/03/15 20:14:28;;;;;;;;;;;;;;;;;;137471;1275;22715;-76
2024/03/15 20:17:29;;;;;;;;;;;;;;;;;;137341;1275;22523;-76
2024/03/15 20:20:30;;;;;;;;;;;;;;;;;;137366;1275;22517;-76
2024/03/15 20:23:31;;;;;;;;;;;;;;;;;;137428;1275;22360;-76
2024/03/15 20:26:33;;;;;;;;;;;;;;;;;;137381;1275;22435;-76